createdAt,value
2022-08-18T00:02:09.233Z,17.08
2022-08-18T00:04:46.825Z,17.07
2022-08-18T00:07:23.765Z,17.09
2022-08-18T00:09:50.745Z,17.07
2022-08-18T00:12:25.583Z,17.05
2022-08-18T00:14:54.090Z,17.03
2022-08-18T00:17:21.509Z,17.03
2022-08-18T00:19:48.969Z,17.05
2022-08-18T00:22:18.629Z,17.07
2022-08-18T00:24:49.369Z,17.07
2022-08-18T00:27:23.239Z,17.10
2022-08-18T00:29:52.867Z,17.08
2022-08-18T00:32:26.785Z,17.08
2022-08-18T00:34:54.430Z,17.10
2022-08-18T00:37:23.016Z,17.10
2022-08-18T00:39:54.382Z,17.09
2022-08-18T00:42:30.349Z,17.05
2022-08-18T00:45:02.869Z,17.02
2022-08-18T00:47:41.024Z,16.99
2022-08-18T00:50:22.100Z,16.97
2022-08-18T00:53:05.111Z,17.00
2022-08-18T00:55:33.676Z,17.01
2022-08-18T00:58:09.340Z,17.04
2022-08-18T01:00:37.849Z,17.04
2022-08-18T01:03:12.792Z,17.02
2022-08-18T01:06:02.066Z,17.03
2022-08-18T01:08:29.768Z,17.02
2022-08-18T01:10:59.071Z,17.01
2022-08-18T01:13:29.811Z,17.00
2022-08-18T01:15:57.240Z,16.97
2022-08-18T01:18:42.793Z,16.94
2022-08-18T01:21:42.147Z,16.93
2022-08-18T01:24:13.203Z,16.91
2022-08-18T01:26:50.342Z,16.95
2022-08-18T01:29:19.716Z,16.94
2022-08-18T01:31:56.834Z,16.94
2022-08-18T01:34:27.802Z,16.93
2022-08-18T01:36:55.530Z,16.93
2022-08-18T01:41:24.295Z,16.94
2022-08-18T01:42:11.401Z,16.93
2022-08-18T01:44:41.686Z,16.91
2022-08-18T01:47:10.826Z,16.92
2022-08-18T01:49:39.296Z,16.91
2022-08-18T01:52:07.462Z,16.90
2022-08-18T01:54:34.419Z,16.89
2022-08-18T01:57:02.620Z,16.89
2022-08-18T01:59:30.801Z,16.89
2022-08-18T02:02:00.145Z,16.88
2022-08-18T02:04:36.698Z,16.86
2022-08-18T02:07:07.181Z,16.83
2022-08-18T02:09:34.345Z,16.79
2022-08-18T02:12:01.301Z,16.73
2022-08-18T02:14:28.053Z,16.71
2022-08-18T02:17:01.837Z,16.69
2022-08-18T02:19:49.789Z,16.69
2022-08-18T02:22:20.029Z,16.69
2022-08-18T02:24:47.722Z,16.71
2022-08-18T02:27:15.918Z,16.72
2022-08-18T02:29:42.981Z,16.69
2022-08-18T02:32:09.668Z,16.66
2022-08-18T02:34:36.633Z,16.62
2022-08-18T02:37:04.614Z,16.56
2022-08-18T02:39:35.239Z,16.51
2022-08-18T02:42:02.163Z,16.47
2022-08-18T02:44:29.019Z,16.44
2022-08-18T02:46:55.764Z,16.37
2022-08-18T02:49:22.796Z,16.34
2022-08-18T02:51:51.335Z,16.29
2022-08-18T02:54:20.528Z,16.26
2022-08-18T02:56:47.882Z,16.23
2022-08-18T02:59:17.156Z,16.22
2022-08-18T03:01:46.546Z,16.17
2022-08-18T03:04:16.073Z,16.14
2022-08-18T03:06:44.342Z,16.11
2022-08-18T03:09:14.102Z,16.08
2022-08-18T03:11:41.448Z,16.06
2022-08-18T03:14:11.603Z,16.03
2022-08-18T03:16:47.174Z,16.04
2022-08-18T03:19:28.741Z,16.09
2022-08-18T03:21:58.167Z,16.14
2022-08-18T03:24:27.884Z,16.17
2022-08-18T03:26:57.451Z,16.23
2022-08-18T03:29:30.956Z,16.26
2022-08-18T03:32:00.099Z,16.27
2022-08-18T03:34:26.936Z,16.28
2022-08-18T03:36:53.943Z,16.26
2022-08-18T03:39:23.856Z,16.28
2022-08-18T03:41:58.223Z,16.30
2022-08-18T03:44:29.583Z,16.29
2022-08-18T03:46:57.460Z,16.30
2022-08-18T03:49:24.416Z,16.29
2022-08-18T03:51:52.101Z,16.28
2022-08-18T03:54:22.064Z,16.24
2022-08-18T03:56:49.759Z,16.22
2022-08-18T03:59:20.021Z,16.21
2022-08-18T04:01:48.889Z,16.21
2022-08-18T04:04:21.918Z,16.22
2022-08-18T04:06:54.807Z,16.25
2022-08-18T04:09:24.734Z,16.25
2022-08-18T04:11:51.956Z,16.25
2022-08-18T04:14:21.362Z,16.25
2022-08-18T04:16:49.427Z,16.24
2022-08-18T04:19:26.861Z,16.22
2022-08-18T04:21:57.020Z,16.21
2022-08-18T04:24:26.123Z,16.20
2022-08-18T04:26:53.428Z,16.21
2022-08-18T04:29:21.795Z,16.23
2022-08-18T04:31:50.415Z,16.26
2022-08-18T04:34:18.508Z,16.26
2022-08-18T04:36:45.660Z,16.21
2022-08-18T04:39:13.648Z,16.19
2022-08-18T04:41:43.778Z,16.18
2022-08-18T04:44:12.942Z,16.17
2022-08-18T04:46:44.101Z,16.16
2022-08-18T04:49:12.076Z,16.16
2022-08-18T04:52:30.811Z,16.17
2022-08-18T04:54:30.324Z,16.17
2022-08-18T04:56:57.325Z,16.18
2022-08-18T04:59:25.032Z,16.18
2022-08-18T05:01:51.777Z,16.16
2022-08-18T05:04:18.805Z,16.17
2022-08-18T05:06:46.283Z,16.17
2022-08-18T05:09:16.780Z,16.18
2022-08-18T05:11:50.932Z,16.17
2022-08-18T05:14:18.790Z,16.15
2022-08-18T05:16:48.686Z,16.14
2022-08-18T05:19:23.196Z,16.12
2022-08-18T05:21:59.935Z,16.12
2022-08-18T05:24:34.071Z,16.11
2022-08-18T05:27:04.871Z,16.09
2022-08-18T05:29:45.689Z,16.09
2022-08-18T05:32:41.200Z,16.10
2022-08-18T05:35:18.256Z,16.10
2022-08-18T05:37:57.218Z,16.09
2022-08-18T05:40:25.466Z,16.11
2022-08-18T05:42:52.285Z,16.12
2022-08-18T05:45:20.806Z,16.11
2022-08-18T05:47:48.225Z,16.11
2022-08-18T05:50:19.802Z,16.13
2022-08-18T05:52:52.433Z,16.13
2022-08-18T05:55:57.992Z,16.13
2022-08-18T05:58:33.728Z,16.16
2022-08-18T06:01:15.673Z,16.17
2022-08-18T06:03:54.873Z,16.15
2022-08-18T06:06:29.610Z,16.19
2022-08-18T06:09:45.315Z,16.20
2022-08-18T06:12:37.249Z,16.21
2022-08-18T06:15:14.604Z,16.25
2022-08-18T06:18:16.797Z,16.24
2022-08-18T06:21:12.139Z,16.26
2022-08-18T06:23:52.172Z,16.30
2022-08-18T06:26:40.655Z,16.32
2022-08-18T06:29:31.648Z,16.36
2022-08-18T06:32:06.687Z,16.42
2022-08-18T06:35:11.881Z,16.46
2022-08-18T06:38:32.029Z,16.46
2022-08-18T06:41:43.254Z,16.49
2022-08-18T06:44:17.553Z,16.57
2022-08-18T06:47:04.724Z,16.60
2022-08-18T06:49:40.182Z,16.62
2022-08-18T06:52:29.295Z,16.65
2022-08-18T06:54:59.937Z,16.66
2022-08-18T06:57:35.898Z,16.66
2022-08-18T07:00:24.257Z,16.72
2022-08-18T07:02:52.671Z,16.78
2022-08-18T07:05:23.639Z,16.81
2022-08-18T07:08:18.584Z,16.84
2022-08-18T07:10:48.965Z,16.92
2022-08-18T07:13:18.865Z,17.06
2022-08-18T07:15:48.244Z,17.23
2022-08-18T07:18:27.025Z,17.40
2022-08-18T07:21:01.047Z,17.55
2022-08-18T07:23:38.975Z,17.69
2022-08-18T07:26:15.179Z,17.81
2022-08-18T07:28:45.765Z,17.91
2022-08-18T07:31:32.352Z,17.91
2022-08-18T07:34:03.773Z,17.90
2022-08-18T07:36:38.403Z,17.88
2022-08-18T07:39:20.952Z,17.84
2022-08-18T07:42:37.314Z,17.81
2022-08-18T07:45:18.351Z,17.82
2022-08-18T07:48:37.562Z,17.86
2022-08-18T07:51:25.237Z,17.89
2022-08-18T07:57:22.653Z,17.98
2022-08-18T08:00:26.722Z,18.00
2022-08-18T08:03:27.356Z,18.00
2022-08-18T08:06:15.052Z,18.00
2022-08-18T08:08:57.240Z,17.97
2022-08-18T08:11:46.859Z,17.97
2022-08-18T08:14:43.514Z,18.00
2022-08-18T08:17:17.804Z,18.08
2022-08-18T08:20:00.922Z,18.10
2022-08-18T08:22:54.713Z,18.13
2022-08-18T08:25:45.763Z,18.10
2022-08-18T08:28:28.450Z,18.07
2022-08-18T08:31:19.112Z,18.11
2022-08-18T08:33:52.244Z,18.14
2022-08-18T08:36:28.270Z,18.20
2022-08-18T08:38:59.833Z,18.27
2022-08-18T08:41:39.801Z,18.26
2022-08-18T08:44:15.602Z,18.26
2022-08-18T08:46:55.587Z,18.33
2022-08-18T08:49:28.497Z,18.44
2022-08-18T08:52:02.503Z,18.56
2022-08-18T08:54:41.400Z,18.67
2022-08-18T08:57:10.929Z,18.78
2022-08-18T08:59:39.914Z,18.89
2022-08-18T09:02:08.651Z,19.03
2022-08-18T09:05:07.400Z,19.15
2022-08-18T09:07:45.504Z,19.28
2022-08-18T09:10:50.288Z,19.43
2022-08-18T09:13:31.932Z,19.49
2022-08-18T09:15:58.784Z,19.44
2022-08-18T09:18:45.996Z,19.45
2022-08-18T09:21:25.136Z,19.49
2022-08-18T09:23:58.020Z,19.46
2022-08-18T09:26:46.767Z,19.44
2022-08-18T09:29:16.458Z,19.45
2022-08-18T09:31:46.471Z,19.53
2022-08-18T09:34:45.355Z,19.66
2022-08-18T09:37:24.266Z,19.87
2022-08-18T09:40:59.287Z,20.17
2022-08-18T09:43:53.533Z,20.35
2022-08-18T09:46:48.355Z,20.38
2022-08-18T09:49:27.069Z,20.34
2022-08-18T09:51:56.721Z,20.30
2022-08-18T09:54:33.155Z,20.32
2022-08-18T09:57:24.700Z,20.34
2022-08-18T09:59:55.013Z,20.39
2022-08-18T10:02:32.176Z,20.45
2022-08-18T10:05:20.215Z,20.60
2022-08-18T10:08:07.989Z,20.79
2022-08-18T10:14:06.301Z,21.12
2022-08-18T10:17:24.796Z,21.02
2022-08-18T10:20:05.630Z,20.87
2022-08-18T10:22:43.367Z,20.85
2022-08-18T10:25:22.898Z,20.87
2022-08-18T10:27:54.620Z,20.85
2022-08-18T10:30:57.064Z,20.89
2022-08-18T10:34:19.625Z,20.96
2022-08-18T10:36:53.512Z,21.12
2022-08-18T10:39:31.015Z,21.34
2022-08-18T10:42:31.326Z,21.64
2022-08-18T10:45:10.250Z,21.80
2022-08-18T10:47:38.074Z,22.05
2022-08-18T10:50:19.960Z,22.14
2022-08-18T10:53:39.606Z,22.16
2022-08-18T10:56:26.562Z,22.21
2022-08-18T10:59:28.582Z,22.34
2022-08-18T11:02:11.683Z,22.26
2022-08-18T11:04:45.060Z,22.20
2022-08-18T11:07:20.189Z,22.20
2022-08-18T11:10:04.750Z,22.14
2022-08-18T11:12:45.890Z,21.97
2022-08-18T11:15:36.214Z,21.80
2022-08-18T11:18:30.226Z,21.67
2022-08-18T11:21:30.718Z,21.60
2022-08-18T11:24:21.538Z,21.59
2022-08-18T11:27:02.333Z,21.60
2022-08-18T11:29:29.822Z,21.59
2022-08-18T11:32:17.926Z,21.56
2022-08-18T11:35:24.747Z,21.46
2022-08-18T11:38:54.401Z,21.43
2022-08-18T11:41:33.853Z,21.41
2022-08-18T11:44:18.281Z,21.36
2022-08-18T11:46:47.576Z,21.34
2022-08-18T11:49:28.806Z,21.30
2022-08-18T11:52:19.861Z,21.29
2022-08-18T11:57:58.779Z,21.63
2022-08-18T12:00:57.256Z,21.77
2022-08-18T12:04:37.142Z,21.92
2022-08-18T12:08:11.201Z,21.96
2022-08-18T12:11:48.935Z,21.79
2022-08-18T12:19:03.135Z,21.51
2022-08-18T12:22:31.970Z,21.40
2022-08-18T12:24:59.650Z,21.37
2022-08-18T12:30:16.906Z,21.28
2022-08-18T12:32:49.831Z,21.25
2022-08-18T12:35:21.809Z,21.23
2022-08-18T12:38:52.148Z,21.18
2022-08-18T12:46:16.862Z,21.22
2022-08-18T12:49:43.378Z,21.22
2022-08-18T12:53:10.326Z,21.14
2022-08-18T12:56:37.986Z,21.13
2022-08-18T13:04:11.291Z,21.06
2022-08-18T13:07:39.953Z,21.19
2022-08-18T13:11:15.106Z,21.40
2022-08-18T13:14:47.340Z,21.50
2022-08-18T13:17:33.041Z,21.56
2022-08-18T13:20:09.257Z,21.64
2022-08-18T13:22:37.591Z,21.76
2022-08-18T13:25:07.267Z,21.91
2022-08-18T13:27:37.532Z,22.43
2022-08-18T13:30:29.440Z,22.80
2022-08-18T13:33:00.462Z,23.13
2022-08-18T13:35:38.239Z,23.41
2022-08-18T13:38:15.746Z,23.50
2022-08-18T13:40:48.737Z,23.58
2022-08-18T13:43:17.947Z,23.75
2022-08-18T13:45:52.895Z,24.11
2022-08-18T13:48:20.653Z,24.48
2022-08-18T13:50:52.886Z,24.61
2022-08-18T13:53:21.462Z,24.76
2022-08-18T13:55:48.664Z,24.91
2022-08-18T13:58:17.677Z,26.03
2022-08-18T14:00:48.861Z,26.62
2022-08-18T14:03:20.576Z,26.85
2022-08-18T14:06:04.074Z,26.58
2022-08-18T14:08:34.335Z,26.23
2022-08-18T14:11:03.432Z,26.70
2022-08-18T14:13:38.326Z,26.75
2022-08-18T14:16:11.213Z,26.15
2022-08-18T14:19:09.870Z,26.78
2022-08-18T14:22:03.814Z,27.67
2022-08-18T14:24:50.687Z,27.09
2022-08-18T14:27:19.922Z,26.41
2022-08-18T14:29:49.818Z,25.95
2022-08-18T14:32:29.469Z,25.87
2022-08-18T14:35:33.079Z,25.61
2022-08-18T14:37:49.297Z,26.05
2022-08-18T14:40:16.927Z,26.38
2022-08-18T14:42:54.050Z,26.92
2022-08-18T14:45:31.383Z,27.85
2022-08-18T14:48:06.521Z,31.21
2022-08-18T14:50:35.714Z,34.12
2022-08-18T14:53:03.975Z,35.48
2022-08-18T14:55:30.673Z,34.08
2022-08-18T14:57:59.549Z,33.15
2022-08-18T15:00:27.727Z,32.79
2022-08-18T15:02:54.779Z,32.67
2022-08-18T15:05:24.190Z,31.71
2022-08-18T15:07:52.189Z,30.03
2022-08-18T15:10:23.277Z,28.34
2022-08-18T15:12:51.068Z,26.98
2022-08-18T15:15:18.590Z,25.83
2022-08-18T15:17:50.464Z,25.54
2022-08-18T15:20:23.801Z,26.44
2022-08-18T15:23:09.357Z,26.81
2022-08-18T15:25:37.429Z,26.36
2022-08-18T15:28:04.659Z,26.33
2022-08-18T15:30:32.507Z,27.17
2022-08-18T15:33:03.228Z,28.89
2022-08-18T15:35:31.371Z,29.70
2022-08-18T15:37:58.652Z,29.01
2022-08-18T15:40:31.205Z,30.08
2022-08-18T15:43:09.904Z,31.67
2022-08-18T15:45:57.772Z,34.16
2022-08-18T15:48:27.260Z,35.84
2022-08-18T15:50:55.077Z,36.41
2022-08-18T15:53:29.790Z,37.34
2022-08-18T15:55:57.034Z,36.90
2022-08-18T15:58:26.721Z,37.46
2022-08-18T16:00:55.661Z,37.38
2022-08-18T16:03:22.674Z,38.13
2022-08-18T16:05:52.873Z,37.99
2022-08-18T16:08:22.502Z,37.08
2022-08-18T16:10:49.615Z,34.45
2022-08-18T16:13:16.712Z,32.46
2022-08-18T16:15:47.024Z,32.24
2022-08-18T16:18:15.799Z,31.67
2022-08-18T16:20:43.676Z,30.02
2022-08-18T16:23:12.542Z,28.29
2022-08-18T16:25:43.433Z,26.89
2022-08-18T16:28:10.705Z,26.03
2022-08-18T16:30:37.726Z,25.40
2022-08-18T16:33:06.995Z,26.49
2022-08-18T16:35:35.214Z,27.73
2022-08-18T16:38:09.115Z,28.58
2022-08-18T16:40:37.504Z,28.31
2022-08-18T16:43:05.039Z,29.09
2022-08-18T16:45:33.782Z,31.30
2022-08-18T16:48:00.852Z,30.47
2022-08-18T16:50:28.172Z,29.58
2022-08-18T16:52:55.697Z,28.25
2022-08-18T16:55:22.453Z,27.99
2022-08-18T16:58:10.625Z,27.70
2022-08-18T17:00:57.949Z,28.29
2022-08-18T17:03:45.439Z,30.07
2022-08-18T17:06:16.383Z,32.65
2022-08-18T17:08:43.831Z,34.15
2022-08-18T17:11:14.212Z,34.70
2022-08-18T17:13:41.793Z,35.24
2022-08-18T17:16:09.369Z,35.75
2022-08-18T17:18:37.206Z,36.38
2022-08-18T17:21:06.054Z,36.28
2022-08-18T17:23:33.524Z,35.66
2022-08-18T17:26:02.627Z,35.46
2022-08-18T17:28:46.796Z,35.63
2022-08-18T17:31:20.936Z,35.59
2022-08-18T17:33:48.155Z,35.25
2022-08-18T17:36:34.542Z,34.53
2022-08-18T17:39:04.266Z,34.40
2022-08-18T17:41:31.041Z,34.00
2022-08-18T17:44:00.892Z,33.04
2022-08-18T17:46:33.261Z,32.22
2022-08-18T17:49:12.198Z,29.46
2022-08-18T17:51:48.892Z,27.72
2022-08-18T17:54:39.007Z,26.46
2022-08-18T17:57:24.027Z,25.65
2022-08-18T18:00:01.975Z,25.04
2022-08-18T18:02:31.619Z,24.55
2022-08-18T18:05:00.759Z,24.05
2022-08-18T18:07:52.700Z,23.64
2022-08-18T18:10:51.018Z,23.26
2022-08-18T18:13:24.793Z,23.06
2022-08-18T18:15:57.579Z,22.82
2022-08-18T18:18:42.413Z,22.58
2022-08-18T18:21:16.500Z,22.39
2022-08-18T18:23:59.492Z,22.22
2022-08-18T18:26:28.832Z,21.95
2022-08-18T18:29:38.036Z,21.78
2022-08-18T18:32:47.361Z,21.73
2022-08-18T18:35:24.804Z,21.61
2022-08-18T18:37:58.831Z,21.38
2022-08-18T18:40:31.844Z,21.14
2022-08-18T18:43:47.097Z,20.89
2022-08-18T18:46:35.669Z,20.60
2022-08-18T18:49:17.112Z,20.44
2022-08-18T18:52:05.772Z,20.38
2022-08-18T18:54:41.563Z,20.30
2022-08-18T18:57:16.153Z,20.20
2022-08-18T19:00:20.609Z,20.03
2022-08-18T19:03:05.287Z,19.86
2022-08-18T19:05:35.326Z,19.72
2022-08-18T19:08:26.494Z,19.62
2022-08-18T19:11:16.534Z,19.46
2022-08-18T19:13:56.401Z,19.30
2022-08-18T19:16:30.823Z,19.22
2022-08-18T19:19:38.169Z,19.13
2022-08-18T19:22:06.733Z,19.04
2022-08-18T19:24:45.518Z,19.01
2022-08-18T19:27:23.644Z,18.92
2022-08-18T19:29:54.426Z,18.83
2022-08-18T19:32:31.085Z,18.75
2022-08-18T19:34:58.910Z,18.66
2022-08-18T19:37:43.697Z,18.59
2022-08-18T19:40:29.449Z,18.55
2022-08-18T19:43:12.546Z,18.51
2022-08-18T19:46:24.080Z,18.43
2022-08-18T19:49:16.703Z,18.35
2022-08-18T19:51:46.556Z,18.32
2022-08-18T19:54:42.744Z,18.24
2022-08-18T19:57:23.821Z,18.19
2022-08-18T20:00:12.994Z,18.13
2022-08-18T20:03:04.226Z,18.06
2022-08-18T20:05:53.293Z,17.99
2022-08-18T20:08:25.950Z,17.95
2022-08-18T20:10:55.663Z,17.89
2022-08-18T20:13:34.159Z,17.81
2022-08-18T20:16:10.703Z,17.77
2022-08-18T20:18:49.140Z,17.76
2022-08-18T20:21:15.875Z,17.70
2022-08-18T20:24:18.577Z,17.65
2022-08-18T20:26:49.348Z,17.56
2022-08-18T20:29:39.493Z,17.54
2022-08-18T20:32:18.157Z,17.50
2022-08-18T20:34:50.777Z,17.42
2022-08-18T20:37:28.072Z,17.38
2022-08-18T20:39:55.766Z,17.36
2022-08-18T20:42:22.481Z,17.33
2022-08-18T20:44:53.920Z,17.31
2022-08-18T20:47:42.365Z,17.27
2022-08-18T20:50:41.787Z,17.21
2022-08-18T20:53:33.292Z,17.16
2022-08-18T20:56:32.700Z,17.14
2022-08-18T20:59:08.736Z,17.13
2022-08-18T21:01:37.086Z,17.06
2022-08-18T21:04:05.925Z,16.99
2022-08-18T21:06:38.001Z,16.94
2022-08-18T21:09:05.299Z,16.88
2022-08-18T21:11:47.536Z,16.80
2022-08-18T21:14:24.797Z,16.75
2022-08-18T21:16:58.974Z,16.68
2022-08-18T21:19:29.179Z,16.64
2022-08-18T21:22:01.901Z,16.60
2022-08-18T21:24:51.588Z,16.52
2022-08-18T21:27:27.364Z,16.51
2022-08-18T21:30:15.607Z,16.51
2022-08-18T21:32:43.648Z,16.48
2022-08-18T21:35:32.304Z,16.42
2022-08-18T21:38:00.851Z,16.37
2022-08-18T21:40:48.936Z,16.31
2022-08-18T21:43:36.892Z,16.29
2022-08-18T21:50:08.586Z,16.16
2022-08-18T21:52:39.109Z,16.09
2022-08-18T21:55:17.462Z,16.08
2022-08-18T21:58:17.449Z,16.02
2022-08-18T22:01:03.078Z,15.99
2022-08-18T22:03:30.023Z,15.96
2022-08-18T22:06:13.334Z,15.94
2022-08-18T22:08:50.123Z,15.87
2022-08-18T22:12:00.817Z,15.84
2022-08-18T22:14:53.967Z,15.83
2022-08-18T22:17:49.446Z,15.77
2022-08-18T22:20:35.909Z,15.72
2022-08-18T22:23:33.110Z,15.70
2022-08-18T22:26:12.514Z,15.66
2022-08-18T22:29:03.270Z,15.63
2022-08-18T22:31:35.918Z,15.62
2022-08-18T22:34:11.432Z,15.63
2022-08-18T22:36:42.349Z,15.63
2022-08-18T22:39:12.704Z,15.62
2022-08-18T22:41:41.658Z,15.65
2022-08-18T22:44:08.829Z,15.67
2022-08-18T22:46:37.257Z,15.64
2022-08-18T22:49:04.589Z,15.64
2022-08-18T22:51:37.044Z,15.67
2022-08-18T22:54:10.020Z,15.69
2022-08-18T22:56:38.652Z,15.69
2022-08-18T22:59:13.632Z,15.71
2022-08-18T23:01:47.647Z,15.71
2022-08-18T23:04:16.133Z,15.70
2022-08-18T23:06:51.443Z,15.70
2022-08-18T23:09:20.816Z,15.67
2022-08-18T23:11:49.129Z,15.69
2022-08-18T23:14:16.128Z,15.70
2022-08-18T23:16:45.537Z,15.68
2022-08-18T23:19:14.346Z,15.66
2022-08-18T23:21:43.748Z,15.61
2022-08-18T23:24:12.620Z,15.55
2022-08-18T23:26:40.406Z,15.50
2022-08-18T23:29:10.942Z,15.46
2022-08-18T23:31:39.806Z,15.44
2022-08-18T23:34:07.959Z,15.39
2022-08-18T23:36:35.142Z,15.35
2022-08-18T23:39:01.999Z,15.32
2022-08-18T23:41:28.718Z,15.29
2022-08-18T23:43:55.664Z,15.28
2022-08-18T23:46:28.712Z,15.26
2022-08-18T23:48:58.277Z,15.21
2022-08-18T23:51:31.604Z,15.18
2022-08-18T23:54:05.021Z,15.15
2022-08-18T23:56:33.185Z,15.13
2022-08-18T23:59:00.909Z,15.09
